createdAt,value
2022-10-01T00:05:45.648Z,11.70
2022-10-01T00:11:47.242Z,11.60
2022-10-01T00:17:48.855Z,11.60
2022-10-01T00:23:55.276Z,11.70
2022-10-01T00:29:57.191Z,11.70
2022-10-01T00:35:58.780Z,11.80
2022-10-01T00:42:00.378Z,11.70
2022-10-01T00:48:01.977Z,11.70
2022-10-01T00:54:10.334Z,11.70
2022-10-01T01:00:14.227Z,11.70
2022-10-01T01:06:15.943Z,11.70
2022-10-01T01:12:17.503Z,11.60
2022-10-01T01:18:19.146Z,11.70
2022-10-01T01:24:44.866Z,11.70
2022-10-01T01:30:49.234Z,11.80
2022-10-01T01:36:55.320Z,11.70
2022-10-01T01:42:58.429Z,11.80
2022-10-01T01:49:04.451Z,11.80
2022-10-01T01:55:08.442Z,11.90
2022-10-01T02:01:28.874Z,11.80
2022-10-01T02:07:33.261Z,11.80
2022-10-01T02:13:35.157Z,11.80
2022-10-01T02:19:41.191Z,11.90
2022-10-01T02:25:45.047Z,12.00
2022-10-01T02:31:47.375Z,12.10
2022-10-01T02:37:50.181Z,12.10
2022-10-01T02:44:03.051Z,12.10
2022-10-01T02:50:06.180Z,11.90
2022-10-01T02:56:08.620Z,11.80
2022-10-01T03:02:10.824Z,11.50
2022-10-01T03:08:12.501Z,11.20
2022-10-01T03:14:14.074Z,10.90
2022-10-01T03:20:15.921Z,10.70
2022-10-01T03:26:17.651Z,10.50
2022-10-01T03:32:19.631Z,10.40
2022-10-01T03:38:21.222Z,10.30
2022-10-01T03:44:22.825Z,10.20
2022-10-01T03:50:24.421Z,10.10
2022-10-01T03:56:26.259Z,10.10
2022-10-01T04:02:28.042Z,10.00
2022-10-01T04:08:29.816Z,10.00
2022-10-01T04:14:31.418Z,9.90
2022-10-01T04:20:33.703Z,9.90
2022-10-01T04:26:35.364Z,9.90
2022-10-01T04:32:37.298Z,9.90
2022-10-01T04:38:38.879Z,9.90
2022-10-01T04:44:40.521Z,9.90
2022-10-01T04:50:42.272Z,9.80
2022-10-01T04:56:43.886Z,9.80
2022-10-01T05:02:46.187Z,9.80
2022-10-01T05:08:48.806Z,9.80
2022-10-01T05:14:50.931Z,9.80
2022-10-01T05:20:52.525Z,9.70
2022-10-01T05:26:54.285Z,9.80
2022-10-01T05:32:59.947Z,9.70
2022-10-01T05:39:01.677Z,9.70
2022-10-01T05:45:03.357Z,9.70
2022-10-01T05:51:08.325Z,9.70
2022-10-01T05:57:10.443Z,9.80
2022-10-01T06:03:13.095Z,9.80
2022-10-01T06:09:15.575Z,9.80
2022-10-01T06:15:17.671Z,9.80
2022-10-01T06:21:19.293Z,9.80
2022-10-01T06:27:20.883Z,9.90
2022-10-01T06:33:22.462Z,9.90
2022-10-01T06:39:24.104Z,10.00
2022-10-01T06:45:26.452Z,10.00
2022-10-01T06:51:46.732Z,10.10
2022-10-01T06:57:50.246Z,10.20
2022-10-01T07:03:54.095Z,10.30
2022-10-01T07:09:55.652Z,10.30
2022-10-01T07:15:57.281Z,10.40
2022-10-01T07:21:58.849Z,10.50
2022-10-01T07:28:01.985Z,10.50
2022-10-01T07:34:05.489Z,10.60
2022-10-01T07:40:07.782Z,10.60
2022-10-01T07:46:10.003Z,10.70
2022-10-01T07:52:13.392Z,10.70
2022-10-01T07:58:15.167Z,10.90
2022-10-01T08:04:35.274Z,10.90
2022-10-01T08:10:37.599Z,10.90
2022-10-01T08:16:40.998Z,10.90
2022-10-01T08:22:42.719Z,10.90
2022-10-01T08:28:44.303Z,11.00
2022-10-01T08:34:46.660Z,11.10
2022-10-01T08:40:49.967Z,11.30
2022-10-01T08:46:52.406Z,11.30
2022-10-01T08:52:57.709Z,11.40
2022-10-01T08:59:03.115Z,11.40
2022-10-01T09:05:20.304Z,11.40
2022-10-01T09:11:37.419Z,11.50
2022-10-01T09:17:53.822Z,11.50
2022-10-01T09:24:02.145Z,11.60
2022-10-01T09:30:11.583Z,11.60
2022-10-01T09:36:18.458Z,11.70
2022-10-01T09:42:21.119Z,11.80
2022-10-01T09:48:29.152Z,12.00
2022-10-01T09:54:43.071Z,12.10
2022-10-01T10:00:44.917Z,12.50
2022-10-01T10:06:46.823Z,12.80
2022-10-01T10:12:49.153Z,12.80
2022-10-01T10:18:54.349Z,12.80
2022-10-01T10:24:58.933Z,12.80
2022-10-01T10:31:00.584Z,12.90
2022-10-01T10:37:07.110Z,12.90
2022-10-01T10:43:25.633Z,13.00
2022-10-01T10:49:30.054Z,13.50
2022-10-01T10:55:31.679Z,14.20
2022-10-01T11:01:36.006Z,14.50
2022-10-01T11:07:37.891Z,14.50
2022-10-01T11:13:49.600Z,14.50
2022-10-01T11:20:03.853Z,15.00
2022-10-01T11:26:09.988Z,15.30
2022-10-01T11:32:19.366Z,15.40
2022-10-01T11:38:36.315Z,15.40
2022-10-01T11:45:01.414Z,15.40
2022-10-01T11:51:08.359Z,15.00
2022-10-01T11:57:33.149Z,14.90
2022-10-01T12:03:38.082Z,15.10
2022-10-01T12:09:55.077Z,14.90
2022-10-01T12:16:08.611Z,14.90
2022-10-01T12:22:10.199Z,14.90
2022-10-01T12:28:19.572Z,15.00
2022-10-01T12:34:22.502Z,15.00
2022-10-01T12:40:43.080Z,15.00
2022-10-01T12:46:51.551Z,15.90
2022-10-01T12:53:16.554Z,15.60
2022-10-01T12:59:33.154Z,15.80
2022-10-01T13:05:53.575Z,16.00
2022-10-01T13:12:15.451Z,16.30
2022-10-01T13:18:20.054Z,16.00
2022-10-01T13:24:30.964Z,16.20
2022-10-01T13:30:53.577Z,16.10
2022-10-01T13:36:55.208Z,15.60
2022-10-01T13:42:58.144Z,15.10
2022-10-01T13:49:05.453Z,14.40
2022-10-01T13:55:07.195Z,12.70
2022-10-01T14:01:23.546Z,11.90
2022-10-01T14:07:30.313Z,11.50
2022-10-01T14:13:53.500Z,11.30
2022-10-01T14:19:55.251Z,11.30
2022-10-01T14:26:01.420Z,11.30
2022-10-01T14:32:21.114Z,11.30
2022-10-01T14:38:22.923Z,11.40
2022-10-01T14:44:38.603Z,11.70
2022-10-01T14:50:40.793Z,11.80
2022-10-01T14:56:42.442Z,12.00
2022-10-01T15:02:44.988Z,12.10
2022-10-01T15:08:47.979Z,12.30
2022-10-01T15:14:53.232Z,12.60
2022-10-01T15:20:58.787Z,12.80
2022-10-01T15:27:00.778Z,12.90
2022-10-01T15:33:02.538Z,13.10
2022-10-01T15:39:13.092Z,13.10
2022-10-01T15:45:25.868Z,13.00
2022-10-01T15:51:28.194Z,13.20
2022-10-01T15:57:33.507Z,13.40
2022-10-01T16:03:50.077Z,13.50
2022-10-01T16:09:52.855Z,13.30
2022-10-01T16:16:12.928Z,13.20
2022-10-01T16:22:19.723Z,13.10
2022-10-01T16:28:25.753Z,13.10
2022-10-01T16:34:27.553Z,13.00
2022-10-01T16:40:32.998Z,12.90
2022-10-01T16:46:34.860Z,12.80
2022-10-01T16:52:37.467Z,12.80
2022-10-01T16:58:39.136Z,12.70
2022-10-01T17:04:41.408Z,12.60
2022-10-01T17:10:46.218Z,12.60
2022-10-01T17:16:48.585Z,12.50
2022-10-01T17:22:50.427Z,12.40
2022-10-01T17:28:52.045Z,12.40
2022-10-01T17:34:54.441Z,12.30
2022-10-01T17:40:56.952Z,12.30
2022-10-01T17:46:58.658Z,12.40
2022-10-01T17:53:00.801Z,12.40
2022-10-01T17:59:02.575Z,12.40
2022-10-01T18:05:08.281Z,12.20
2022-10-01T18:11:10.914Z,12.10
2022-10-01T18:17:12.729Z,11.90
2022-10-01T18:23:14.355Z,12.00
2022-10-01T18:29:26.181Z,11.80
2022-10-01T18:35:30.919Z,11.70
2022-10-01T18:41:34.646Z,11.80
2022-10-01T18:47:56.713Z,11.70
2022-10-01T18:54:16.828Z,11.70
2022-10-01T19:00:21.968Z,11.80
2022-10-01T19:06:44.026Z,11.70
2022-10-01T19:12:50.931Z,11.70
2022-10-01T19:19:02.721Z,11.70
2022-10-01T19:25:12.464Z,11.70
2022-10-01T19:31:17.004Z,11.70
2022-10-01T19:37:39.008Z,11.60
2022-10-01T19:43:40.593Z,11.60
2022-10-01T19:49:42.258Z,11.60
2022-10-01T19:55:43.948Z,11.60
2022-10-01T20:01:46.117Z,11.60
2022-10-01T20:07:54.017Z,11.60
2022-10-01T20:13:58.863Z,11.70
2022-10-01T20:20:06.791Z,11.90
2022-10-01T20:26:08.357Z,11.90
2022-10-01T20:32:18.518Z,12.00
2022-10-01T20:38:21.541Z,12.00
2022-10-01T20:44:33.481Z,12.10
2022-10-01T20:50:39.342Z,11.90
2022-10-01T20:56:56.481Z,11.80
2022-10-01T21:03:16.035Z,11.70
2022-10-01T21:09:25.051Z,11.70
2022-10-01T21:15:28.570Z,11.70
2022-10-01T21:21:31.290Z,11.60
2022-10-01T21:27:51.693Z,11.70
2022-10-01T21:33:56.903Z,11.70
2022-10-01T21:40:06.094Z,11.60
2022-10-01T21:46:27.976Z,11.60
2022-10-01T21:52:44.440Z,11.60
2022-10-01T21:58:54.536Z,11.60
2022-10-01T22:04:57.955Z,11.60
2022-10-01T22:11:02.684Z,11.60
2022-10-01T22:17:19.677Z,11.50
2022-10-01T22:23:21.345Z,11.40
2022-10-01T22:29:25.237Z,11.40
2022-10-01T22:35:28.844Z,11.40
2022-10-01T22:41:36.375Z,11.30
2022-10-01T22:47:38.024Z,11.20
2022-10-01T22:53:51.754Z,11.30
2022-10-01T22:59:56.183Z,11.30
2022-10-01T23:06:05.585Z,11.30
2022-10-01T23:12:10.321Z,11.30
2022-10-01T23:18:15.098Z,11.30
2022-10-01T23:24:35.899Z,11.20
2022-10-01T23:30:40.567Z,11.20
2022-10-01T23:36:49.909Z,11.10
2022-10-01T23:43:05.100Z,11.10
2022-10-01T23:49:15.046Z,11.30
2022-10-01T23:55:56.241Z,11.40
